This is the latest recevied weather packets stored in our database for station/object TG9ADI-20. If no packets are shown the sender has not sent any weather packets the latest 10 day(s).
| Time | Temp. | Humidity | Pressure | Rain* | Wind** | Luminosity | Snow |
|---|---|---|---|---|---|---|---|
| 1777889302 | 16.11° C | 10% | - | 0 mm | - | - | - |
| 1777888702 | 16.67° C | 93% | 1015 hPa | 0 mm | - | - | - |
| 1777888101 | 17.22° C | 93% | 1015 hPa | 0 mm | - | - | - |
| 1777887501 | 15° C | 96% | 1015 hPa | 0 mm | - | - | - |
| 1777886900 | 15.56° C | 96% | 1015 hPa | 0 mm | - | - | - |
| 1777886299 | 16.67° C | 92% | 1015 hPa | 0 mm | - | - | - |
| 1777885699 | 17.22° C | 93% | 1015 hPa | 0 mm | - | - | - |
| 1777885098 | 15.56° C | 96% | 1015 hPa | 0 mm | - | - | - |
| 1777884497 | 16.11° C | 10% | - | 0 mm | - | - | - |
| 1777883897 | 16.67° C | 92% | 1015 hPa | 0 mm | - | - | - |
| 1777883296 | 16.67° C | 92% | 1015 hPa | 0 mm | - | - | - |
| 1777882696 | 17.22° C | 93% | 1015 hPa | 0 mm | - | - | - |
| 1777882095 | 17.22° C | 93% | 1015 hPa | 0 mm | - | - | - |
| 1777881494 | 15° C | 10% | - | 0 mm | - | - | - |
| 1777880894 | 16.11° C | 10% | - | 0 mm | - | - | - |
| 1777880293 | 15.56° C | 95% | 1015 hPa | 0 mm | - | - | - |
| 1777879692 | 16.11° C | 94% | 1016 hPa | 0 mm | - | - | - |
| 1777879092 | 15° C | 95% | 1016 hPa | 0 mm | - | - | - |
| 1777878491 | 15° C | 95% | 1016 hPa | 0 mm | - | - | - |
| 1777877891 | 15.56° C | 95% | 1016 hPa | 0 mm | - | - | - |
| 1777877290 | 16.67° C | 93% | 1016 hPa | 0 mm | - | - | - |
| 1777876689 | 16.67° C | 93% | 1016 hPa | 0 mm | - | - | - |
| 1777876089 | 17.78° C | 90% | 1018 hPa | 0 mm | - | - | - |
| 1777875488 | 16.11° C | 96% | 1017 hPa | 0 mm | - | - | - |
| 1777874888 | 16.67° C | 94% | 1017 hPa | 0 mm | - | - | - |
* Rain latest hour (hover to see other rain measurements)
** Current wind speed in m/s (hover to see current wind gust speed)